createdAt,value
2018-09-04T00:01:27.231Z,17.41
2018-09-04T00:03:55.926Z,17.36
2018-09-04T00:06:24.637Z,17.34
2018-09-04T00:08:53.258Z,17.30
2018-09-04T00:11:21.948Z,17.29
2018-09-04T00:13:50.655Z,17.22
2018-09-04T00:16:19.909Z,17.23
2018-09-04T00:18:48.592Z,17.20
2018-09-04T00:21:17.888Z,17.18
2018-09-04T00:23:46.543Z,17.11
2018-09-04T00:26:15.199Z,17.02
2018-09-04T00:28:43.873Z,16.93
2018-09-04T00:31:12.553Z,16.90
2018-09-04T00:33:41.238Z,16.91
2018-09-04T00:36:10.054Z,16.89
2018-09-04T00:38:38.777Z,16.84
2018-09-04T00:41:07.747Z,16.82
2018-09-04T00:43:36.341Z,16.80
2018-09-04T00:46:06.041Z,16.76
2018-09-04T00:48:34.729Z,16.77
2018-09-04T00:51:03.389Z,16.81
2018-09-04T00:53:32.230Z,16.86
2018-09-04T00:56:00.909Z,16.88
2018-09-04T00:58:29.730Z,16.93
2018-09-04T01:00:58.480Z,16.95
2018-09-04T01:03:27.301Z,16.99
2018-09-04T01:05:56.088Z,17.05
2018-09-04T01:08:24.884Z,17.09
2018-09-04T01:10:54.057Z,17.14
2018-09-04T01:13:22.746Z,17.18
2018-09-04T01:15:51.458Z,17.20
2018-09-04T01:18:20.058Z,17.18
2018-09-04T01:20:48.704Z,17.18
2018-09-04T01:23:17.453Z,17.13
2018-09-04T01:25:46.329Z,17.06
2018-09-04T01:28:15.089Z,17.01
2018-09-04T01:30:43.697Z,16.93
2018-09-04T01:33:12.400Z,16.86
2018-09-04T01:35:41.121Z,16.78
2018-09-04T01:38:09.835Z,16.71
2018-09-04T01:40:38.658Z,16.64
2018-09-04T01:43:08.204Z,16.57
2018-09-04T01:45:36.993Z,16.51
2018-09-04T01:48:05.809Z,16.46
2018-09-04T01:50:34.473Z,16.43
2018-09-04T01:53:03.215Z,16.37
2018-09-04T01:55:31.910Z,16.33
2018-09-04T01:58:00.671Z,16.28
2018-09-04T02:00:30.422Z,16.23
2018-09-04T02:02:59.065Z,16.15
2018-09-04T02:05:28.266Z,16.11
2018-09-04T02:07:57.326Z,16.07
2018-09-04T02:10:26.146Z,16.06
2018-09-04T02:12:55.376Z,16.04
2018-09-04T02:15:24.173Z,16.01
2018-09-04T02:17:52.918Z,15.98
2018-09-04T02:20:22.698Z,15.91
2018-09-04T02:22:51.461Z,15.88
2018-09-04T02:25:20.290Z,15.84
2018-09-04T02:27:49.673Z,15.81
2018-09-04T02:30:18.403Z,15.79
2018-09-04T02:32:47.062Z,15.76
2018-09-04T02:35:15.842Z,15.73
2018-09-04T02:37:45.016Z,15.66
2018-09-04T02:40:13.777Z,15.59
2018-09-04T02:42:42.567Z,15.54
2018-09-04T02:45:11.331Z,15.54
2018-09-04T02:47:40.020Z,15.51
2018-09-04T02:50:09.056Z,15.45
2018-09-04T02:52:37.836Z,15.40
2018-09-04T02:55:07.025Z,15.37
2018-09-04T02:57:36.395Z,15.38
2018-09-04T03:00:05.186Z,15.38
2018-09-04T03:02:34.769Z,15.38
2018-09-04T03:05:03.405Z,15.39
2018-09-04T03:07:32.129Z,15.41
2018-09-04T03:10:00.909Z,15.39
2018-09-04T03:12:29.634Z,15.43
2018-09-04T03:15:01.265Z,15.44
2018-09-04T03:17:29.893Z,15.45
2018-09-04T03:19:59.398Z,15.43
2018-09-04T03:22:29.089Z,15.45
2018-09-04T03:24:59.458Z,15.45
2018-09-04T03:27:28.186Z,15.43
2018-09-04T03:29:56.897Z,15.45
2018-09-04T03:32:25.710Z,15.45
2018-09-04T03:34:54.332Z,15.47
2018-09-04T03:37:23.018Z,15.46
2018-09-04T03:39:51.984Z,15.45
2018-09-04T03:42:20.588Z,15.46
2018-09-04T03:44:49.443Z,15.47
2018-09-04T03:47:18.216Z,15.46
2018-09-04T03:49:47.050Z,15.45
2018-09-04T03:52:15.704Z,15.43
2018-09-04T03:54:44.244Z,15.44
2018-09-04T03:57:15.805Z,15.45
2018-09-04T03:59:44.558Z,15.43
2018-09-04T04:02:13.339Z,15.44
2018-09-04T04:04:41.959Z,15.41
2018-09-04T04:07:10.562Z,15.40
2018-09-04T04:09:39.380Z,15.41
2018-09-04T04:12:08.124Z,15.41
2018-09-04T04:14:37.845Z,15.41
2018-09-04T04:17:06.889Z,15.41
2018-09-04T04:19:35.610Z,15.41
2018-09-04T04:22:04.323Z,15.39
2018-09-04T04:24:33.001Z,15.41
2018-09-04T04:27:02.937Z,15.42
2018-09-04T04:29:32.059Z,15.44
2018-09-04T04:32:02.061Z,15.46
2018-09-04T04:34:31.462Z,15.45
2018-09-04T04:37:00.310Z,15.47
2018-09-04T04:39:29.364Z,15.50
2018-09-04T04:41:58.461Z,15.55
2018-09-04T04:44:27.250Z,15.59
2018-09-04T04:46:57.121Z,15.60
2018-09-04T04:49:26.787Z,15.65
2018-09-04T04:51:55.675Z,15.68
2018-09-04T04:54:24.334Z,15.72
2018-09-04T04:56:53.271Z,15.77
2018-09-04T04:59:21.856Z,15.81
2018-09-04T05:01:51.524Z,15.87
2018-09-04T05:04:24.048Z,15.91
2018-09-04T05:06:52.785Z,15.95
2018-09-04T05:09:21.461Z,15.99
2018-09-04T05:11:50.165Z,16.02
2018-09-04T05:14:19.003Z,16.06
2018-09-04T05:16:47.798Z,16.11
2018-09-04T05:19:17.451Z,16.15
2018-09-04T05:21:46.124Z,16.20
2018-09-04T05:24:14.853Z,16.25
2018-09-04T05:26:43.467Z,16.33
2018-09-04T05:29:12.272Z,16.40
2018-09-04T05:31:47.010Z,16.45
2018-09-04T05:34:15.904Z,16.53
2018-09-04T05:36:44.561Z,16.60
2018-09-04T05:39:13.195Z,16.65
2018-09-04T05:41:42.853Z,16.73
2018-09-04T05:44:11.729Z,16.81
2018-09-04T05:46:44.096Z,16.87
2018-09-04T05:49:15.367Z,16.94
2018-09-04T05:51:45.046Z,17.04
2018-09-04T05:54:13.861Z,17.14
2018-09-04T05:56:45.274Z,17.23
2018-09-04T05:59:14.001Z,17.34
2018-09-04T06:01:43.733Z,17.42
2018-09-04T06:04:12.559Z,17.46
2018-09-04T06:06:41.261Z,17.54
2018-09-04T06:09:10.151Z,17.61
2018-09-04T06:11:38.970Z,17.67
2018-09-04T06:14:07.701Z,17.73
2018-09-04T06:16:36.502Z,17.84
2018-09-04T06:19:05.402Z,17.96
2018-09-04T06:21:34.210Z,18.06
2018-09-04T06:24:03.052Z,18.15
2018-09-04T06:26:31.726Z,18.28
2018-09-04T06:29:00.465Z,18.44
2018-09-04T06:31:29.143Z,18.64
2018-09-04T06:33:57.972Z,18.86
2018-09-04T06:36:27.733Z,19.14
2018-09-04T06:38:56.304Z,19.41
2018-09-04T06:41:25.925Z,19.62
2018-09-04T06:43:56.001Z,19.80
2018-09-04T06:46:24.893Z,19.97
2018-09-04T06:48:53.514Z,20.08
2018-09-04T06:51:22.301Z,20.19
2018-09-04T06:53:50.963Z,20.32
2018-09-04T06:56:19.637Z,20.41
2018-09-04T06:58:48.553Z,20.49
2018-09-04T07:01:17.144Z,20.60
2018-09-04T07:03:45.764Z,20.72
2018-09-04T07:06:14.634Z,20.75
2018-09-04T07:08:43.317Z,20.74
2018-09-04T07:11:11.982Z,20.71
2018-09-04T07:13:40.839Z,20.74
2018-09-04T07:16:09.503Z,20.79
2018-09-04T07:18:38.465Z,20.84
2018-09-04T07:21:07.081Z,20.90
2018-09-04T07:23:35.836Z,20.95
2018-09-04T07:26:05.047Z,21.03
2018-09-04T07:28:33.814Z,21.11
2018-09-04T07:31:02.757Z,21.20
2018-09-04T07:33:31.388Z,21.31
2018-09-04T07:36:00.083Z,21.40
2018-09-04T07:38:28.834Z,21.52
2018-09-04T07:40:57.500Z,21.63
2018-09-04T07:43:26.370Z,21.74
2018-09-04T07:45:55.094Z,21.84
2018-09-04T07:48:24.719Z,22.01
2018-09-04T07:50:53.599Z,22.15
2018-09-04T07:53:22.211Z,22.30
2018-09-04T07:55:50.866Z,22.43
2018-09-04T07:58:20.314Z,22.52
2018-09-04T08:00:49.080Z,22.62
2018-09-04T08:03:17.891Z,22.71
2018-09-04T08:05:46.558Z,22.74
2018-09-04T08:08:15.631Z,22.81
2018-09-04T08:10:45.378Z,22.85
2018-09-04T08:13:14.063Z,23.04
2018-09-04T08:15:43.485Z,23.17
2018-09-04T08:18:12.225Z,23.27
2018-09-04T08:20:41.605Z,23.32
2018-09-04T08:23:10.185Z,23.44
2018-09-04T08:25:38.897Z,23.58
2018-09-04T08:28:07.959Z,23.62
2018-09-04T08:30:36.541Z,23.69
2018-09-04T08:33:05.369Z,23.76
2018-09-04T08:35:33.926Z,23.77
2018-09-04T08:38:02.592Z,23.80
2018-09-04T08:40:33.024Z,23.84
2018-09-04T08:43:02.148Z,23.91
2018-09-04T08:45:31.864Z,23.99
2018-09-04T08:48:01.937Z,24.07
2018-09-04T08:50:32.436Z,24.13
2018-09-04T08:53:01.412Z,24.17
2018-09-04T08:55:30.069Z,24.25
2018-09-04T08:57:58.769Z,24.28
2018-09-04T09:00:28.109Z,24.33
2018-09-04T09:02:56.755Z,24.42
2018-09-04T09:05:25.743Z,24.50
2018-09-04T09:07:54.678Z,24.55
2018-09-04T09:10:23.373Z,24.40
2018-09-04T09:12:52.342Z,24.25
2018-09-04T09:15:21.035Z,24.24
2018-09-04T09:17:51.022Z,24.25
2018-09-04T09:20:20.465Z,24.22
2018-09-04T09:22:49.952Z,24.18
2018-09-04T09:25:19.300Z,24.10
2018-09-04T09:27:48.386Z,23.97
2018-09-04T09:30:17.074Z,23.80
2018-09-04T09:32:45.802Z,23.81
2018-09-04T09:35:16.250Z,23.86
2018-09-04T09:37:44.958Z,23.90
2018-09-04T09:40:13.720Z,24.04
2018-09-04T09:42:44.331Z,24.07
2018-09-04T09:45:13.685Z,24.07
2018-09-04T09:47:47.525Z,24.13
2018-09-04T09:50:16.272Z,24.22
2018-09-04T09:52:45.599Z,24.35
2018-09-04T09:55:15.897Z,24.49
2018-09-04T09:57:44.651Z,24.57
2018-09-04T10:00:18.814Z,24.60
2018-09-04T10:02:55.597Z,24.77
2018-09-04T10:05:24.305Z,24.96
2018-09-04T10:07:53.292Z,25.06
2018-09-04T10:10:22.144Z,25.24
2018-09-04T10:12:50.917Z,25.38
2018-09-04T10:15:19.678Z,25.55
2018-09-04T10:17:48.436Z,25.51
2018-09-04T10:20:17.323Z,25.64
2018-09-04T10:22:46.013Z,25.73
2018-09-04T10:25:15.393Z,25.93
2018-09-04T10:27:44.157Z,26.14
2018-09-04T10:30:14.081Z,26.27
2018-09-04T10:32:57.253Z,26.37
2018-09-04T10:35:26.031Z,26.37
2018-09-04T10:37:54.765Z,26.20
2018-09-04T10:40:28.693Z,26.07
2018-09-04T10:42:57.322Z,26.18
2018-09-04T10:45:31.249Z,26.06
2018-09-04T10:47:59.997Z,26.02
2018-09-04T10:50:29.349Z,26.00
2018-09-04T10:52:58.181Z,25.88
2018-09-04T10:55:26.919Z,25.88
2018-09-04T10:57:55.800Z,25.92
2018-09-04T11:00:24.463Z,26.26
2018-09-04T11:02:53.385Z,26.65
2018-09-04T11:05:22.213Z,26.65
2018-09-04T11:07:50.934Z,26.41
2018-09-04T11:10:27.277Z,26.30
2018-09-04T11:12:56.093Z,26.35
2018-09-04T11:15:24.938Z,26.28
2018-09-04T11:17:53.961Z,26.31
2018-09-04T11:20:22.653Z,26.38
2018-09-04T11:22:51.613Z,27.07
2018-09-04T11:25:20.361Z,28.00
2018-09-04T11:27:50.086Z,29.15
2018-09-04T11:30:18.930Z,29.86
2018-09-04T11:32:48.123Z,30.30
2018-09-04T11:35:16.795Z,30.14
2018-09-04T11:37:45.506Z,29.66
2018-09-04T11:40:14.248Z,29.65
2018-09-04T11:45:16.894Z,29.59
2018-09-04T11:47:45.626Z,28.96
2018-09-04T11:50:14.304Z,28.39
2018-09-04T11:52:43.335Z,28.74
2018-09-04T11:55:12.369Z,29.50
2018-09-04T11:57:42.431Z,30.31
2018-09-04T12:00:16.058Z,30.97
2018-09-04T12:02:45.439Z,31.54
2018-09-04T12:05:14.145Z,32.17
2018-09-04T12:07:42.840Z,32.60
2018-09-04T12:10:11.628Z,31.37
2018-09-04T12:12:40.669Z,30.11
2018-09-04T12:15:09.195Z,30.34
2018-09-04T12:17:37.905Z,29.97
2018-09-04T12:20:14.400Z,29.72
2018-09-04T12:22:42.992Z,29.43
2018-09-04T12:25:11.626Z,29.70
2018-09-04T12:27:40.338Z,29.44
2018-09-04T12:30:09.079Z,29.18
2018-09-04T12:32:38.724Z,29.70
2018-09-04T12:35:08.453Z,30.34
2018-09-04T12:37:37.261Z,30.95
2018-09-04T12:40:06.156Z,31.42
2018-09-04T12:42:35.479Z,32.26
2018-09-04T12:45:04.180Z,32.70
2018-09-04T12:47:32.808Z,33.18
2018-09-04T12:50:01.704Z,33.18
2018-09-04T12:52:30.345Z,32.66
2018-09-04T12:54:59.057Z,32.82
2018-09-04T12:57:27.810Z,32.81
2018-09-04T12:59:58.727Z,32.91
2018-09-04T13:02:27.538Z,31.93
2018-09-04T13:04:56.118Z,31.61
2018-09-04T13:07:24.780Z,32.05
2018-09-04T13:09:53.712Z,32.43
2018-09-04T13:12:22.477Z,32.31
2018-09-04T13:14:51.507Z,31.02
2018-09-04T13:17:20.157Z,30.22
2018-09-04T13:19:48.837Z,29.40
2018-09-04T13:22:17.458Z,29.87
2018-09-04T13:24:46.326Z,30.69
2018-09-04T13:27:15.179Z,31.34
2018-09-04T13:29:43.737Z,31.44
2018-09-04T13:32:12.423Z,31.88
2018-09-04T13:34:41.225Z,32.04
2018-09-04T13:37:10.636Z,32.12
2018-09-04T13:39:39.236Z,32.54
2018-09-04T13:42:08.599Z,32.38
2018-09-04T13:44:37.302Z,32.10
2018-09-04T13:47:06.918Z,32.39
2018-09-04T13:49:36.739Z,32.73
2018-09-04T13:52:05.882Z,33.37
2018-09-04T13:54:34.514Z,33.31
2018-09-04T13:57:03.265Z,32.84
2018-09-04T13:59:31.888Z,32.53
2018-09-04T14:02:00.482Z,32.53
2018-09-04T14:04:29.130Z,32.30
2018-09-04T14:06:57.956Z,32.16
2018-09-04T14:09:26.876Z,32.36
2018-09-04T14:11:56.089Z,32.67
2018-09-04T14:14:26.541Z,32.41
2018-09-04T14:16:55.623Z,32.25
2018-09-04T14:19:25.629Z,31.94
2018-09-04T14:21:54.282Z,31.89
2018-09-04T14:24:22.986Z,31.81
2018-09-04T14:26:51.681Z,31.71
2018-09-04T14:29:53.163Z,31.96
2018-09-04T14:31:52.911Z,32.29
2018-09-04T14:34:21.432Z,32.82
2018-09-04T14:36:50.329Z,33.01
2018-09-04T14:39:18.803Z,32.78
2018-09-04T14:41:48.115Z,32.44
2018-09-04T14:44:17.816Z,32.36
2018-09-04T14:46:47.728Z,32.27
2018-09-04T14:49:16.655Z,32.13
2018-09-04T14:51:45.425Z,32.04
2018-09-04T14:54:14.176Z,31.99
2018-09-04T14:56:44.472Z,31.62
2018-09-04T14:59:13.111Z,31.54
2018-09-04T15:01:43.276Z,31.29
2018-09-04T15:04:12.018Z,30.91
2018-09-04T15:06:41.400Z,30.56
2018-09-04T15:09:13.110Z,30.26
2018-09-04T15:11:41.769Z,29.89
2018-09-04T15:14:10.306Z,29.63
2018-09-04T15:16:39.423Z,29.60
2018-09-04T15:19:08.332Z,29.65
2018-09-04T15:21:37.988Z,29.38
2018-09-04T15:24:07.867Z,29.31
2018-09-04T15:26:36.971Z,29.46
2018-09-04T15:29:05.553Z,29.33
2018-09-04T15:31:35.320Z,29.12
2018-09-04T15:34:03.929Z,28.97
2018-09-04T15:36:32.625Z,28.87
2018-09-04T15:39:01.434Z,28.91
2018-09-04T15:41:30.064Z,29.05
2018-09-04T15:43:59.380Z,29.03
2018-09-04T15:46:28.204Z,29.11
2018-09-04T15:49:02.120Z,28.82
2018-09-04T15:51:39.410Z,28.70
2018-09-04T15:54:08.252Z,28.48
2018-09-04T15:56:36.915Z,28.27
2018-09-04T15:59:05.529Z,28.12
2018-09-04T16:01:35.117Z,28.03
2018-09-04T16:04:04.015Z,27.90
2018-09-04T16:06:32.615Z,27.85
2018-09-04T16:09:01.260Z,27.84
2018-09-04T16:11:29.971Z,27.95
2018-09-04T16:13:58.712Z,27.92
2018-09-04T16:16:27.280Z,27.91
2018-09-04T16:18:55.844Z,27.83
2018-09-04T16:21:24.550Z,27.73
2018-09-04T16:23:53.165Z,27.79
2018-09-04T16:26:23.562Z,27.75
2018-09-04T16:28:53.355Z,27.83
2018-09-04T16:31:22.120Z,27.53
2018-09-04T16:33:50.820Z,27.21
2018-09-04T16:36:20.413Z,26.99
2018-09-04T16:38:50.744Z,26.89
2018-09-04T16:41:19.360Z,26.75
2018-09-04T16:43:48.119Z,26.62
2018-09-04T16:46:16.829Z,26.38
2018-09-04T16:48:45.577Z,26.13
2018-09-04T16:51:14.366Z,25.88
2018-09-04T16:53:43.106Z,25.62
2018-09-04T16:56:11.773Z,25.32
2018-09-04T16:58:40.468Z,25.12
2018-09-04T17:01:10.329Z,24.92
2018-09-04T17:03:40.057Z,24.70
2018-09-04T17:06:08.652Z,24.46
2018-09-04T17:08:37.398Z,24.29
2018-09-04T17:11:06.233Z,24.11
2018-09-04T17:13:34.919Z,23.97
2018-09-04T17:16:03.750Z,23.81
2018-09-04T17:18:32.487Z,23.70
2018-09-04T17:21:01.122Z,23.56
2018-09-04T17:23:29.991Z,23.46
2018-09-04T17:25:58.577Z,23.30
2018-09-04T17:28:28.203Z,23.16
2018-09-04T17:30:56.835Z,23.03
2018-09-04T17:33:26.460Z,22.87
2018-09-04T17:35:55.307Z,22.76
2018-09-04T17:38:24.067Z,22.61
2018-09-04T17:40:54.671Z,22.48
2018-09-04T17:43:26.079Z,22.37
2018-09-04T17:45:54.830Z,22.25
2018-09-04T17:48:23.665Z,22.19
2018-09-04T17:50:53.275Z,22.09
2018-09-04T17:53:21.796Z,22.00
2018-09-04T17:55:50.419Z,21.88
2018-09-04T17:58:19.179Z,21.77
2018-09-04T18:00:48.994Z,21.68
2018-09-04T18:03:17.675Z,21.57
2018-09-04T18:05:46.406Z,21.48
2018-09-04T18:08:15.073Z,21.39
2018-09-04T18:10:44.052Z,21.28
2018-09-04T18:13:12.863Z,21.17
2018-09-04T18:15:41.701Z,21.06
2018-09-04T18:18:10.401Z,20.98
2018-09-04T18:20:39.024Z,20.84
2018-09-04T18:23:07.712Z,20.75
2018-09-04T18:25:36.383Z,20.66
2018-09-04T18:28:05.271Z,20.60
2018-09-04T18:30:34.219Z,20.55
2018-09-04T18:33:03.884Z,20.51
2018-09-04T18:35:32.821Z,20.49
2018-09-04T18:38:01.727Z,20.45
2018-09-04T18:40:30.471Z,20.38
2018-09-04T18:42:59.197Z,20.32
2018-09-04T18:45:46.583Z,20.24
2018-09-04T18:48:15.665Z,20.11
2018-09-04T18:50:48.178Z,20.01
2018-09-04T18:53:16.945Z,19.91
2018-09-04T18:55:46.120Z,19.83
2018-09-04T18:58:16.838Z,19.75
2018-09-04T19:00:46.042Z,19.68
2018-09-04T19:03:14.968Z,19.60
2018-09-04T19:05:44.809Z,19.54
2018-09-04T19:08:13.609Z,19.51
2018-09-04T19:10:45.936Z,19.54
2018-09-04T19:13:15.851Z,19.50
2018-09-04T19:15:45.776Z,19.45
2018-09-04T19:18:15.576Z,19.39
2018-09-04T19:20:44.617Z,19.32
2018-09-04T19:23:13.536Z,19.23
2018-09-04T19:25:42.866Z,19.16
2018-09-04T19:28:12.620Z,19.11
2018-09-04T19:30:41.636Z,19.05
2018-09-04T19:33:10.399Z,18.98
2018-09-04T19:35:40.517Z,18.93
2018-09-04T19:38:09.346Z,18.85
2018-09-04T19:40:39.363Z,18.79
2018-09-04T19:43:08.871Z,18.75
2018-09-04T19:45:38.792Z,18.74
2018-09-04T19:48:08.395Z,18.71
2018-09-04T19:50:37.294Z,18.70
2018-09-04T19:53:06.075Z,18.68
2018-09-04T19:55:34.819Z,18.72
2018-09-04T19:58:03.533Z,18.72
2018-09-04T20:00:32.323Z,18.71
2018-09-04T20:03:01.153Z,18.68
2018-09-04T20:05:29.952Z,18.70
2018-09-04T20:07:58.834Z,18.68
2018-09-04T20:10:27.460Z,18.65
2018-09-04T20:12:56.177Z,18.63
2018-09-04T20:15:25.380Z,18.61
2018-09-04T20:17:55.916Z,18.57
2018-09-04T20:20:24.564Z,18.52
2018-09-04T20:22:53.792Z,18.46
2018-09-04T20:25:22.943Z,18.44
2018-09-04T20:27:51.796Z,18.42
2018-09-04T20:30:20.493Z,18.39
2018-09-04T20:32:49.209Z,18.38
2018-09-04T20:35:18.072Z,18.39
2018-09-04T20:37:47.209Z,18.38
2018-09-04T20:40:15.988Z,18.38
2018-09-04T20:42:45.364Z,18.34
2018-09-04T20:45:15.924Z,18.28
2018-09-04T20:47:45.421Z,18.23
2018-09-04T20:50:14.041Z,18.16
2018-09-04T20:52:42.834Z,18.12
2018-09-04T20:55:11.560Z,18.09
2018-09-04T20:57:40.221Z,18.05
2018-09-04T21:00:26.328Z,17.92
2018-09-04T21:03:06.093Z,17.73
2018-09-04T21:05:45.949Z,17.67
2018-09-04T21:08:21.962Z,17.65
2018-09-04T21:10:51.510Z,17.59
2018-09-04T21:13:22.208Z,17.52
2018-09-04T21:15:51.105Z,17.54
2018-09-04T21:18:20.692Z,17.52
2018-09-04T21:20:49.928Z,17.46
2018-09-04T21:23:18.662Z,17.43
2018-09-04T21:25:47.323Z,17.39
2018-09-04T21:28:16.127Z,17.32
2018-09-04T21:30:44.723Z,17.27
2018-09-04T21:33:13.443Z,17.22
2018-09-04T21:35:42.215Z,17.16
2018-09-04T21:38:11.157Z,17.10
2018-09-04T21:40:39.879Z,17.01
2018-09-04T21:43:08.544Z,16.95
2018-09-04T21:45:37.427Z,16.93
2018-09-04T21:48:06.236Z,16.90
2018-09-04T21:50:35.013Z,16.91
2018-09-04T21:53:03.624Z,16.91
2018-09-04T21:55:32.300Z,16.90
2018-09-04T21:58:01.022Z,16.80
2018-09-04T22:00:30.124Z,16.71
2018-09-04T22:02:59.257Z,16.60
2018-09-04T22:05:27.893Z,16.48
2018-09-04T22:07:57.818Z,16.39
2018-09-04T22:10:27.516Z,16.45
2018-09-04T22:12:56.780Z,16.53
2018-09-04T22:15:25.493Z,16.56
2018-09-04T22:17:54.250Z,16.59
2018-09-04T22:20:22.916Z,16.59
2018-09-04T22:22:51.532Z,16.61
2018-09-04T22:25:20.180Z,16.61
2018-09-04T22:27:48.859Z,16.63
2018-09-04T22:30:17.692Z,16.61
2018-09-04T22:32:46.575Z,16.62
2018-09-04T22:35:15.263Z,16.62
2018-09-04T22:37:44.190Z,16.60
2018-09-04T22:40:12.951Z,16.59
2018-09-04T22:42:42.215Z,16.59
2018-09-04T22:45:11.253Z,16.57
2018-09-04T22:47:41.176Z,16.58
2018-09-04T22:50:15.042Z,16.57
2018-09-04T22:52:43.588Z,16.56
2018-09-04T22:55:13.580Z,16.56
2018-09-04T22:57:43.530Z,16.56
2018-09-04T23:00:13.695Z,16.52
2018-09-04T23:02:42.641Z,16.48
2018-09-04T23:05:12.776Z,16.48
2018-09-04T23:07:41.428Z,16.45
2018-09-04T23:10:10.129Z,16.45
2018-09-04T23:12:38.934Z,16.44
2018-09-04T23:15:07.637Z,16.45
2018-09-04T23:17:36.275Z,16.42
2018-09-04T23:20:04.999Z,16.38
2018-09-04T23:22:33.764Z,16.36
2018-09-04T23:25:02.787Z,16.33
2018-09-04T23:27:31.565Z,16.33
2018-09-04T23:30:00.256Z,16.30
2018-09-04T23:32:29.069Z,16.29
2018-09-04T23:34:57.988Z,16.26
2018-09-04T23:37:26.705Z,16.23
2018-09-04T23:39:55.256Z,16.19
2018-09-04T23:42:24.172Z,16.18
2018-09-04T23:44:52.684Z,16.13
2018-09-04T23:47:21.397Z,16.10
2018-09-04T23:49:50.152Z,16.09
2018-09-04T23:52:18.895Z,16.02
2018-09-04T23:54:47.676Z,15.96
2018-09-04T23:57:16.280Z,15.86
2018-09-04T23:59:45.173Z,15.81
